MMPR/PVR METAR and TAF weather

Enter ICAO airport designator
Station Type Date Time Source
MMPR METAR 2021/09/25 12:04 UTC NOAA

MMPR 251204Z RTD 02003KT 15SM SKC 24/23 A2985 RMK SLP107 5//// 954 RTS


Station Type Date Time Source
MMPR Decoded METAR 2021/09/25 12:04 UTC NOAA

Puerto Vallarta / Lic, Mexico (MMPR) 20-41N 105-15W
Sep 25, 2021 - 08:04 AM EDT / 2021.09.25 1204 UTC
Wind: from the NNE (020 degrees) at 3 MPH (3 KT):0
Visibility: 15 mile(s):0
Sky conditions: clear
Temperature: 75 F (24 C)
Dew Point: 73 F (23 C)
Relative Humidity: 94%
Pressure (altimeter): 29.85 in. Hg (1010 hPa)
ob: MMPR 251204Z RTD 02003KT 15SM SKC 24/23 A2985 RMK SLP107 5//// 954 RTS
cycle: 12

Station Type Date Time Source
MMPR TAF 2021/09/24 12:03 UTC NOAA

TAF MMPR 241102Z 2412/2518 30005KT 6SM HZ SCT020 BKN100 BKN240 TX32/2420Z TN26/2412Z
FM242000 24010KT P6SM SCT020 BKN240
TEMPO 2500/2504 6SM TSRA BKN020CB
FM250600 00000KT P6SM SCT020 BKN240
FM251600 24008KT 6SM HZ SCT020 BKN240

Example: see airport list